sensor_id;sensor_type;location;lat;lon;timestamp;P1;durP1;ratioP1;P2;durP2;ratioP2
18100;SDS011;9177;49.156;8.142;2023-03-01T00:01:07;5.27;;;3.27;;
18100;SDS011;9177;49.156;8.142;2023-03-01T00:03:35;4.43;;;3.90;;
18100;SDS011;9177;49.156;8.142;2023-03-01T00:06:04;4.57;;;3.43;;
18100;SDS011;9177;49.156;8.142;2023-03-01T00:08:32;4.57;;;3.10;;
18100;SDS011;9177;49.156;8.142;2023-03-01T00:11:00;3.37;;;3.07;;
18100;SDS011;9177;49.156;8.142;2023-03-01T00:13:28;3.57;;;3.27;;
18100;SDS011;9177;49.156;8.142;2023-03-01T00:15:55;3.77;;;3.20;;
18100;SDS011;9177;49.156;8.142;2023-03-01T00:18:21;4.37;;;3.20;;
18100;SDS011;9177;49.156;8.142;2023-03-01T00:20:51;3.30;;;2.83;;
18100;SDS011;9177;49.156;8.142;2023-03-01T00:23:20;4.90;;;3.13;;
18100;SDS011;9177;49.156;8.142;2023-03-01T00:25:48;4.17;;;2.77;;
18100;SDS011;9177;49.156;8.142;2023-03-01T00:28:16;3.33;;;3.03;;
18100;SDS011;9177;49.156;8.142;2023-03-01T00:30:43;4.03;;;2.90;;
18100;SDS011;9177;49.156;8.142;2023-03-01T00:33:10;3.63;;;3.30;;
18100;SDS011;9177;49.156;8.142;2023-03-01T00:35:37;3.60;;;3.30;;
18100;SDS011;9177;49.156;8.142;2023-03-01T00:38:05;3.23;;;2.93;;
18100;SDS011;9177;49.156;8.142;2023-03-01T00:40:34;3.00;;;2.70;;
18100;SDS011;9177;49.156;8.142;2023-03-01T00:43:01;3.37;;;3.07;;
18100;SDS011;9177;49.156;8.142;2023-03-01T00:45:29;3.20;;;2.90;;
18100;SDS011;9177;49.156;8.142;2023-03-01T00:47:57;3.43;;;3.13;;
18100;SDS011;9177;49.156;8.142;2023-03-01T00:50:24;3.33;;;2.97;;
18100;SDS011;9177;49.156;8.142;2023-03-01T00:52:52;3.30;;;3.00;;
18100;SDS011;9177;49.156;8.142;2023-03-01T00:55:19;3.17;;;2.87;;
18100;SDS011;9177;49.156;8.142;2023-03-01T00:57:47;3.30;;;3.00;;
18100;SDS011;9177;49.156;8.142;2023-03-01T01:00:14;2.83;;;2.63;;
18100;SDS011;9177;49.156;8.142;2023-03-01T01:02:42;3.67;;;3.10;;
18100;SDS011;9177;49.156;8.142;2023-03-01T01:05:09;3.30;;;2.77;;
18100;SDS011;9177;49.156;8.142;2023-03-01T01:07:36;3.80;;;3.27;;
18100;SDS011;9177;49.156;8.142;2023-03-01T01:10:03;3.53;;;3.17;;
18100;SDS011;9177;49.156;8.142;2023-03-01T01:12:31;3.30;;;3.00;;
18100;SDS011;9177;49.156;8.142;2023-03-01T01:15:00;4.13;;;3.10;;
18100;SDS011;9177;49.156;8.142;2023-03-01T01:17:26;4.70;;;2.97;;
18100;SDS011;9177;49.156;8.142;2023-03-01T01:19:55;4.67;;;3.30;;
18100;SDS011;9177;49.156;8.142;2023-03-01T01:22:22;3.37;;;3.07;;
18100;SDS011;9177;49.156;8.142;2023-03-01T01:24:49;3.60;;;3.10;;
18100;SDS011;9177;49.156;8.142;2023-03-01T01:27:16;3.47;;;2.90;;
18100;SDS011;9177;49.156;8.142;2023-03-01T01:29:42;3.57;;;3.27;;
18100;SDS011;9177;49.156;8.142;2023-03-01T01:32:11;3.20;;;2.90;;
18100;SDS011;9177;49.156;8.142;2023-03-01T01:34:38;3.50;;;3.20;;
18100;SDS011;9177;49.156;8.142;2023-03-01T01:37:04;3.43;;;3.13;;
18100;SDS011;9177;49.156;8.142;2023-03-01T01:39:33;3.47;;;3.17;;
18100;SDS011;9177;49.156;8.142;2023-03-01T01:42:00;3.97;;;3.20;;
18100;SDS011;9177;49.156;8.142;2023-03-01T01:44:27;3.53;;;2.90;;
18100;SDS011;9177;49.156;8.142;2023-03-01T01:46:55;3.60;;;3.30;;
18100;SDS011;9177;49.156;8.142;2023-03-01T01:49:28;4.87;;;3.30;;
18100;SDS011;9177;49.156;8.142;2023-03-01T01:52:07;3.63;;;3.17;;
18100;SDS011;9177;49.156;8.142;2023-03-01T01:54:42;3.07;;;2.77;;
18100;SDS011;9177;49.156;8.142;2023-03-01T01:57:13;3.70;;;3.37;;
18100;SDS011;9177;49.156;8.142;2023-03-01T01:59:43;3.43;;;3.13;;
18100;SDS011;9177;49.156;8.142;2023-03-01T02:02:15;3.40;;;3.10;;
18100;SDS011;9177;49.156;8.142;2023-03-01T02:04:43;3.77;;;2.90;;
18100;SDS011;9177;49.156;8.142;2023-03-01T02:07:13;3.30;;;3.00;;
18100;SDS011;9177;49.156;8.142;2023-03-01T02:09:43;3.43;;;3.13;;
18100;SDS011;9177;49.156;8.142;2023-03-01T02:12:13;3.73;;;3.07;;
18100;SDS011;9177;49.156;8.142;2023-03-01T02:14:42;3.33;;;3.03;;
18100;SDS011;9177;49.156;8.142;2023-03-01T02:17:09;4.13;;;3.10;;
18100;SDS011;9177;49.156;8.142;2023-03-01T02:19:41;3.60;;;3.30;;
18100;SDS011;9177;49.156;8.142;2023-03-01T02:22:20;3.40;;;3.10;;
18100;SDS011;9177;49.156;8.142;2023-03-01T02:24:53;3.30;;;3.03;;
18100;SDS011;9177;49.156;8.142;2023-03-01T02:27:30;3.60;;;3.10;;
18100;SDS011;9177;49.156;8.142;2023-03-01T02:30:05;3.70;;;3.27;;
18100;SDS011;9177;49.156;8.142;2023-03-01T02:32:33;3.57;;;3.27;;
18100;SDS011;9177;49.156;8.142;2023-03-01T02:35:00;3.20;;;2.63;;
18100;SDS011;9177;49.156;8.142;2023-03-01T02:37:27;3.40;;;3.00;;
18100;SDS011;9177;49.156;8.142;2023-03-01T02:39:55;3.27;;;2.97;;
18100;SDS011;9177;49.156;8.142;2023-03-01T02:42:26;3.27;;;2.97;;
18100;SDS011;9177;49.156;8.142;2023-03-01T02:44:56;3.27;;;2.97;;
18100;SDS011;9177;49.156;8.142;2023-03-01T02:47:24;2.93;;;2.70;;
18100;SDS011;9177;49.156;8.142;2023-03-01T02:49:51;3.50;;;3.20;;
18100;SDS011;9177;49.156;8.142;2023-03-01T02:52:27;3.30;;;3.00;;
18100;SDS011;9177;49.156;8.142;2023-03-01T02:55:03;3.40;;;3.10;;
18100;SDS011;9177;49.156;8.142;2023-03-01T02:57:34;3.33;;;3.03;;
18100;SDS011;9177;49.156;8.142;2023-03-01T03:00:06;3.20;;;2.90;;
18100;SDS011;9177;49.156;8.142;2023-03-01T03:02:37;3.40;;;3.10;;
18100;SDS011;9177;49.156;8.142;2023-03-01T03:05:05;3.67;;;3.37;;
18100;SDS011;9177;49.156;8.142;2023-03-01T03:07:34;3.97;;;3.57;;
18100;SDS011;9177;49.156;8.142;2023-03-01T03:10:03;3.30;;;3.00;;
18100;SDS011;9177;49.156;8.142;2023-03-01T03:12:31;3.40;;;3.10;;
18100;SDS011;9177;49.156;8.142;2023-03-01T03:15:00;3.47;;;2.93;;
18100;SDS011;9177;49.156;8.142;2023-03-01T03:17:33;3.37;;;3.10;;
18100;SDS011;9177;49.156;8.142;2023-03-01T03:20:02;3.33;;;3.03;;
18100;SDS011;9177;49.156;8.142;2023-03-01T03:22:29;3.67;;;3.17;;
18100;SDS011;9177;49.156;8.142;2023-03-01T03:24:58;3.80;;;3.40;;
18100;SDS011;9177;49.156;8.142;2023-03-01T03:27:27;3.83;;;3.30;;
18100;SDS011;9177;49.156;8.142;2023-03-01T03:29:53;3.43;;;3.10;;
18100;SDS011;9177;49.156;8.142;2023-03-01T03:32:20;3.00;;;2.80;;
18100;SDS011;9177;49.156;8.142;2023-03-01T03:34:47;3.30;;;3.00;;
18100;SDS011;9177;49.156;8.142;2023-03-01T03:37:15;3.47;;;3.17;;
18100;SDS011;9177;49.156;8.142;2023-03-01T03:39:56;3.10;;;2.80;;
18100;SDS011;9177;49.156;8.142;2023-03-01T03:42:25;3.40;;;3.10;;
18100;SDS011;9177;49.156;8.142;2023-03-01T03:44:51;4.07;;;3.67;;
18100;SDS011;9177;49.156;8.142;2023-03-01T03:47:18;3.53;;;3.23;;
18100;SDS011;9177;49.156;8.142;2023-03-01T03:49:45;4.23;;;3.70;;
18100;SDS011;9177;49.156;8.142;2023-03-01T03:52:12;3.23;;;2.93;;
18100;SDS011;9177;49.156;8.142;2023-03-01T03:54:40;3.70;;;3.40;;
18100;SDS011;9177;49.156;8.142;2023-03-01T03:57:07;3.90;;;3.60;;
18100;SDS011;9177;49.156;8.142;2023-03-01T03:59:34;3.47;;;3.13;;
18100;SDS011;9177;49.156;8.142;2023-03-01T04:02:00;3.77;;;3.37;;
18100;SDS011;9177;49.156;8.142;2023-03-01T04:04:27;3.63;;;3.33;;
18100;SDS011;9177;49.156;8.142;2023-03-01T04:06:54;3.57;;;3.20;;
18100;SDS011;9177;49.156;8.142;2023-03-01T04:09:21;3.30;;;3.00;;
18100;SDS011;9177;49.156;8.142;2023-03-01T04:11:49;3.87;;;3.20;;
18100;SDS011;9177;49.156;8.142;2023-03-01T04:14:16;3.77;;;3.37;;
18100;SDS011;9177;49.156;8.142;2023-03-01T04:16:43;3.83;;;3.47;;
18100;SDS011;9177;49.156;8.142;2023-03-01T04:19:10;3.70;;;3.40;;
18100;SDS011;9177;49.156;8.142;2023-03-01T04:21:36;3.90;;;3.50;;
18100;SDS011;9177;49.156;8.142;2023-03-01T04:24:03;3.90;;;3.60;;
18100;SDS011;9177;49.156;8.142;2023-03-01T04:26:31;4.40;;;3.30;;
18100;SDS011;9177;49.156;8.142;2023-03-01T04:29:00;3.43;;;3.07;;
18100;SDS011;9177;49.156;8.142;2023-03-01T04:31:26;3.53;;;3.23;;
18100;SDS011;9177;49.156;8.142;2023-03-01T04:33:54;3.70;;;3.23;;
18100;SDS011;9177;49.156;8.142;2023-03-01T04:36:23;3.80;;;3.30;;
18100;SDS011;9177;49.156;8.142;2023-03-01T04:38:51;3.40;;;3.10;;
18100;SDS011;9177;49.156;8.142;2023-03-01T04:41:18;3.70;;;3.40;;
18100;SDS011;9177;49.156;8.142;2023-03-01T04:43:47;3.50;;;3.20;;
18100;SDS011;9177;49.156;8.142;2023-03-01T04:46:16;3.70;;;3.40;;
18100;SDS011;9177;49.156;8.142;2023-03-01T04:48:44;3.80;;;3.23;;
18100;SDS011;9177;49.156;8.142;2023-03-01T04:51:12;3.83;;;3.43;;
18100;SDS011;9177;49.156;8.142;2023-03-01T04:53:39;3.90;;;3.60;;
18100;SDS011;9177;49.156;8.142;2023-03-01T04:56:07;3.37;;;3.07;;
18100;SDS011;9177;49.156;8.142;2023-03-01T04:58:34;4.13;;;3.73;;
18100;SDS011;9177;49.156;8.142;2023-03-01T05:01:01;3.93;;;3.57;;
18100;SDS011;9177;49.156;8.142;2023-03-01T05:03:41;4.00;;;3.67;;
18100;SDS011;9177;49.156;8.142;2023-03-01T05:06:09;3.87;;;3.53;;
18100;SDS011;9177;49.156;8.142;2023-03-01T05:08:36;3.93;;;3.47;;
18100;SDS011;9177;49.156;8.142;2023-03-01T05:11:03;4.20;;;3.53;;
18100;SDS011;9177;49.156;8.142;2023-03-01T05:13:34;3.53;;;3.23;;
18100;SDS011;9177;49.156;8.142;2023-03-01T05:16:02;3.77;;;3.30;;
18100;SDS011;9177;49.156;8.142;2023-03-01T05:18:30;3.67;;;3.37;;
18100;SDS011;9177;49.156;8.142;2023-03-01T05:21:03;4.23;;;3.83;;
18100;SDS011;9177;49.156;8.142;2023-03-01T05:23:31;3.80;;;3.50;;
18100;SDS011;9177;49.156;8.142;2023-03-01T05:25:59;4.23;;;3.83;;
18100;SDS011;9177;49.156;8.142;2023-03-01T05:28:27;4.17;;;3.70;;
18100;SDS011;9177;49.156;8.142;2023-03-01T05:30:54;4.27;;;3.87;;
18100;SDS011;9177;49.156;8.142;2023-03-01T05:33:22;3.87;;;3.47;;
18100;SDS011;9177;49.156;8.142;2023-03-01T05:35:49;4.30;;;3.90;;
18100;SDS011;9177;49.156;8.142;2023-03-01T05:38:19;4.13;;;3.73;;
18100;SDS011;9177;49.156;8.142;2023-03-01T05:40:47;4.20;;;3.80;;
18100;SDS011;9177;49.156;8.142;2023-03-01T05:43:15;3.50;;;3.20;;
18100;SDS011;9177;49.156;8.142;2023-03-01T05:45:43;3.63;;;3.33;;
18100;SDS011;9177;49.156;8.142;2023-03-01T05:48:11;4.87;;;4.03;;
18100;SDS011;9177;49.156;8.142;2023-03-01T05:50:39;4.60;;;4.20;;
18100;SDS011;9177;49.156;8.142;2023-03-01T05:53:08;4.07;;;3.67;;
18100;SDS011;9177;49.156;8.142;2023-03-01T05:55:38;5.20;;;3.50;;
18100;SDS011;9177;49.156;8.142;2023-03-01T05:58:06;4.30;;;3.90;;
18100;SDS011;9177;49.156;8.142;2023-03-01T06:00:35;4.20;;;3.80;;
18100;SDS011;9177;49.156;8.142;2023-03-01T06:03:02;4.30;;;3.90;;
18100;SDS011;9177;49.156;8.142;2023-03-01T06:05:29;3.97;;;3.60;;
18100;SDS011;9177;49.156;8.142;2023-03-01T06:07:58;4.60;;;3.83;;
18100;SDS011;9177;49.156;8.142;2023-03-01T06:10:25;4.00;;;3.60;;
18100;SDS011;9177;49.156;8.142;2023-03-01T06:12:54;3.93;;;3.63;;
18100;SDS011;9177;49.156;8.142;2023-03-01T06:15:21;3.80;;;3.40;;
18100;SDS011;9177;49.156;8.142;2023-03-01T06:17:49;4.10;;;3.70;;
18100;SDS011;9177;49.156;8.142;2023-03-01T06:20:17;4.47;;;4.00;;
18100;SDS011;9177;49.156;8.142;2023-03-01T06:22:45;3.80;;;3.50;;
18100;SDS011;9177;49.156;8.142;2023-03-01T06:25:13;3.83;;;3.43;;
18100;SDS011;9177;49.156;8.142;2023-03-01T06:27:42;4.33;;;3.93;;
18100;SDS011;9177;49.156;8.142;2023-03-01T06:30:11;4.50;;;3.80;;
18100;SDS011;9177;49.156;8.142;2023-03-01T06:32:41;4.63;;;4.13;;
18100;SDS011;9177;49.156;8.142;2023-03-01T06:35:08;4.70;;;4.30;;
18100;SDS011;9177;49.156;8.142;2023-03-01T06:37:35;4.33;;;3.93;;
18100;SDS011;9177;49.156;8.142;2023-03-01T06:40:02;3.77;;;3.47;;
18100;SDS011;9177;49.156;8.142;2023-03-01T06:42:33;4.70;;;4.30;;
18100;SDS011;9177;49.156;8.142;2023-03-01T06:45:00;3.87;;;3.47;;
18100;SDS011;9177;49.156;8.142;2023-03-01T06:47:28;3.77;;;3.47;;
18100;SDS011;9177;49.156;8.142;2023-03-01T06:49:55;4.03;;;3.73;;
18100;SDS011;9177;49.156;8.142;2023-03-01T06:52:25;4.73;;;4.00;;
18100;SDS011;9177;49.156;8.142;2023-03-01T06:54:52;3.50;;;3.20;;
18100;SDS011;9177;49.156;8.142;2023-03-01T06:57:21;4.43;;;4.03;;
18100;SDS011;9177;49.156;8.142;2023-03-01T06:59:48;3.97;;;3.57;;
18100;SDS011;9177;49.156;8.142;2023-03-01T07:02:14;4.07;;;3.67;;
18100;SDS011;9177;49.156;8.142;2023-03-01T07:04:43;4.40;;;4.00;;
18100;SDS011;9177;49.156;8.142;2023-03-01T07:07:10;4.53;;;4.10;;
18100;SDS011;9177;49.156;8.142;2023-03-01T07:09:37;4.47;;;4.07;;
18100;SDS011;9177;49.156;8.142;2023-03-01T07:12:04;4.50;;;4.10;;
18100;SDS011;9177;49.156;8.142;2023-03-01T07:14:32;4.13;;;3.73;;
18100;SDS011;9177;49.156;8.142;2023-03-01T07:16:59;4.43;;;3.80;;
18100;SDS011;9177;49.156;8.142;2023-03-01T07:19:26;4.53;;;4.10;;
18100;SDS011;9177;49.156;8.142;2023-03-01T07:21:54;4.30;;;3.90;;
18100;SDS011;9177;49.156;8.142;2023-03-01T07:24:21;4.60;;;4.20;;
18100;SDS011;9177;49.156;8.142;2023-03-01T07:26:49;4.13;;;3.73;;
18100;SDS011;9177;49.156;8.142;2023-03-01T07:29:16;4.43;;;4.03;;
18100;SDS011;9177;49.156;8.142;2023-03-01T07:31:44;4.20;;;3.90;;
18100;SDS011;9177;49.156;8.142;2023-03-01T07:34:11;4.90;;;4.27;;
18100;SDS011;9177;49.156;8.142;2023-03-01T07:36:38;4.70;;;4.30;;
18100;SDS011;9177;49.156;8.142;2023-03-01T07:39:09;4.57;;;3.87;;
18100;SDS011;9177;49.156;8.142;2023-03-01T07:41:36;3.90;;;3.60;;
18100;SDS011;9177;49.156;8.142;2023-03-01T07:44:04;4.20;;;3.90;;
18100;SDS011;9177;49.156;8.142;2023-03-01T07:46:30;4.40;;;4.00;;
18100;SDS011;9177;49.156;8.142;2023-03-01T07:48:58;4.90;;;4.40;;
18100;SDS011;9177;49.156;8.142;2023-03-01T07:51:25;4.60;;;3.90;;
18100;SDS011;9177;49.156;8.142;2023-03-01T07:53:51;4.17;;;3.80;;
18100;SDS011;9177;49.156;8.142;2023-03-01T07:56:20;4.20;;;3.80;;
18100;SDS011;9177;49.156;8.142;2023-03-01T07:58:47;4.40;;;3.87;;
18100;SDS011;9177;49.156;8.142;2023-03-01T08:01:14;4.77;;;4.37;;
18100;SDS011;9177;49.156;8.142;2023-03-01T08:03:42;4.53;;;4.10;;
18100;SDS011;9177;49.156;8.142;2023-03-01T08:06:10;4.03;;;3.63;;
18100;SDS011;9177;49.156;8.142;2023-03-01T08:08:37;4.20;;;3.80;;
18100;SDS011;9177;49.156;8.142;2023-03-01T08:11:05;4.97;;;4.03;;
18100;SDS011;9177;49.156;8.142;2023-03-01T08:13:34;3.87;;;3.47;;
18100;SDS011;9177;49.156;8.142;2023-03-01T08:16:01;4.00;;;3.60;;
18100;SDS011;9177;49.156;8.142;2023-03-01T08:18:29;4.63;;;3.97;;
18100;SDS011;9177;49.156;8.142;2023-03-01T08:21:00;4.00;;;3.70;;
18100;SDS011;9177;49.156;8.142;2023-03-01T08:23:28;3.90;;;3.50;;
18100;SDS011;9177;49.156;8.142;2023-03-01T08:26:02;4.03;;;3.70;;
18100;SDS011;9177;49.156;8.142;2023-03-01T08:28:30;3.90;;;3.60;;
18100;SDS011;9177;49.156;8.142;2023-03-01T08:30:59;3.90;;;3.60;;
18100;SDS011;9177;49.156;8.142;2023-03-01T08:33:25;3.87;;;3.57;;
18100;SDS011;9177;49.156;8.142;2023-03-01T08:35:52;3.90;;;3.60;;
18100;SDS011;9177;49.156;8.142;2023-03-01T08:38:28;4.07;;;3.67;;
18100;SDS011;9177;49.156;8.142;2023-03-01T08:40:54;3.70;;;3.40;;
18100;SDS011;9177;49.156;8.142;2023-03-01T08:43:24;4.23;;;3.83;;
18100;SDS011;9177;49.156;8.142;2023-03-01T08:45:51;3.83;;;3.53;;
18100;SDS011;9177;49.156;8.142;2023-03-01T08:48:19;4.20;;;3.80;;
18100;SDS011;9177;49.156;8.142;2023-03-01T08:50:46;4.33;;;3.93;;
18100;SDS011;9177;49.156;8.142;2023-03-01T08:53:13;3.87;;;3.57;;
18100;SDS011;9177;49.156;8.142;2023-03-01T08:55:40;4.23;;;3.83;;
18100;SDS011;9177;49.156;8.142;2023-03-01T08:58:07;3.97;;;3.67;;
18100;SDS011;9177;49.156;8.142;2023-03-01T09:00:34;4.20;;;3.80;;
18100;SDS011;9177;49.156;8.142;2023-03-01T09:03:00;3.90;;;3.53;;
18100;SDS011;9177;49.156;8.142;2023-03-01T09:05:30;3.83;;;3.53;;
18100;SDS011;9177;49.156;8.142;2023-03-01T09:07:57;4.17;;;3.77;;
18100;SDS011;9177;49.156;8.142;2023-03-01T09:10:24;4.23;;;3.83;;
18100;SDS011;9177;49.156;8.142;2023-03-01T09:12:51;3.73;;;3.43;;
18100;SDS011;9177;49.156;8.142;2023-03-01T09:15:18;4.00;;;3.70;;
18100;SDS011;9177;49.156;8.142;2023-03-01T09:17:45;4.33;;;3.93;;
18100;SDS011;9177;49.156;8.142;2023-03-01T09:20:12;4.07;;;3.60;;
18100;SDS011;9177;49.156;8.142;2023-03-01T09:22:40;4.20;;;3.57;;
18100;SDS011;9177;49.156;8.142;2023-03-01T09:25:07;4.37;;;3.97;;
18100;SDS011;9177;49.156;8.142;2023-03-01T09:27:34;3.90;;;3.60;;
18100;SDS011;9177;49.156;8.142;2023-03-01T09:30:02;3.67;;;3.37;;
18100;SDS011;9177;49.156;8.142;2023-03-01T09:32:29;3.77;;;3.40;;
18100;SDS011;9177;49.156;8.142;2023-03-01T09:34:56;4.22;;;3.83;;
18100;SDS011;9177;49.156;8.142;2023-03-01T09:37:32;3.70;;;3.40;;
18100;SDS011;9177;49.156;8.142;2023-03-01T09:40:03;4.07;;;3.67;;
18100;SDS011;9177;49.156;8.142;2023-03-01T09:42:32;3.80;;;3.40;;
18100;SDS011;9177;49.156;8.142;2023-03-01T09:45:02;4.10;;;3.70;;
18100;SDS011;9177;49.156;8.142;2023-03-01T09:47:32;3.83;;;3.50;;
18100;SDS011;9177;49.156;8.142;2023-03-01T09:50:02;4.20;;;3.80;;
18100;SDS011;9177;49.156;8.142;2023-03-01T09:52:38;3.77;;;3.47;;
18100;SDS011;9177;49.156;8.142;2023-03-01T09:55:10;4.33;;;3.80;;
18100;SDS011;9177;49.156;8.142;2023-03-01T09:57:41;4.53;;;3.93;;
18100;SDS011;9177;49.156;8.142;2023-03-01T10:00:17;4.07;;;3.77;;
18100;SDS011;9177;49.156;8.142;2023-03-01T10:02:57;4.40;;;3.47;;
18100;SDS011;9177;49.156;8.142;2023-03-01T10:05:31;4.17;;;3.77;;
18100;SDS011;9177;49.156;8.142;2023-03-01T10:08:23;4.03;;;3.63;;
18100;SDS011;9177;49.156;8.142;2023-03-01T10:10:59;4.20;;;3.73;;
18100;SDS011;9177;49.156;8.142;2023-03-01T10:13:27;4.13;;;3.73;;
18100;SDS011;9177;49.156;8.142;2023-03-01T10:16:01;4.97;;;3.93;;
18100;SDS011;9177;49.156;8.142;2023-03-01T10:18:35;3.93;;;3.63;;
18100;SDS011;9177;49.156;8.142;2023-03-01T10:21:09;3.57;;;3.27;;
18100;SDS011;9177;49.156;8.142;2023-03-01T10:23:41;4.47;;;4.07;;
18100;SDS011;9177;49.156;8.142;2023-03-01T10:26:14;4.93;;;4.43;;
18100;SDS011;9177;49.156;8.142;2023-03-01T10:29:01;4.40;;;4.00;;
18100;SDS011;9177;49.156;8.142;2023-03-01T10:31:35;3.60;;;3.30;;
18100;SDS011;9177;49.156;8.142;2023-03-01T10:34:08;4.23;;;3.83;;
18100;SDS011;9177;49.156;8.142;2023-03-01T10:36:38;3.80;;;3.50;;
18100;SDS011;9177;49.156;8.142;2023-03-01T10:39:11;4.45;;;3.97;;
18100;SDS011;9177;49.156;8.142;2023-03-01T10:41:51;4.57;;;4.13;;
18100;SDS011;9177;49.156;8.142;2023-03-01T10:44:37;4.03;;;3.70;;
18100;SDS011;9177;49.156;8.142;2023-03-01T10:47:11;4.57;;;4.17;;
18100;SDS011;9177;49.156;8.142;2023-03-01T10:49:51;4.37;;;4.07;;
18100;SDS011;9177;49.156;8.142;2023-03-01T10:52:24;4.40;;;4.00;;
18100;SDS011;9177;49.156;8.142;2023-03-01T10:55:03;3.95;;;3.55;;
18100;SDS011;9177;49.156;8.142;2023-03-01T10:57:49;4.20;;;3.80;;
18100;SDS011;9177;49.156;8.142;2023-03-01T11:00:31;4.90;;;4.00;;
18100;SDS011;9177;49.156;8.142;2023-03-01T11:03:04;4.30;;;3.90;;
18100;SDS011;9177;49.156;8.142;2023-03-01T11:05:49;4.40;;;4.00;;
18100;SDS011;9177;49.156;8.142;2023-03-01T11:11:03;4.77;;;4.30;;
18100;SDS011;9177;49.156;8.142;2023-03-01T11:13:34;4.60;;;4.20;;
18100;SDS011;9177;49.156;8.142;2023-03-01T11:16:03;4.70;;;4.30;;
18100;SDS011;9177;49.156;8.142;2023-03-01T11:18:33;4.80;;;4.40;;
18100;SDS011;9177;49.156;8.142;2023-03-01T11:21:00;4.95;;;4.50;;
18100;SDS011;9177;49.156;8.142;2023-03-01T11:23:28;5.05;;;3.95;;
18100;SDS011;9177;49.156;8.142;2023-03-01T11:25:58;4.40;;;4.00;;
18100;SDS011;9177;49.156;8.142;2023-03-01T11:28:28;5.00;;;4.50;;
18100;SDS011;9177;49.156;8.142;2023-03-01T11:30:58;4.88;;;4.30;;
18100;SDS011;9177;49.156;8.142;2023-03-01T11:33:33;4.82;;;4.32;;
18100;SDS011;9177;49.156;8.142;2023-03-01T11:36:06;4.65;;;4.25;;
18100;SDS011;9177;49.156;8.142;2023-03-01T11:38:40;4.33;;;3.93;;
18100;SDS011;9177;49.156;8.142;2023-03-01T11:41:07;4.72;;;4.28;;
18100;SDS011;9177;49.156;8.142;2023-03-01T11:43:42;4.67;;;4.20;;
18100;SDS011;9177;49.156;8.142;2023-03-01T11:49:10;4.68;;;4.22;;
18100;SDS011;9177;49.156;8.142;2023-03-01T11:51:47;5.28;;;4.78;;
18100;SDS011;9177;49.156;8.142;2023-03-01T11:54:26;4.90;;;4.40;;
18100;SDS011;9177;49.156;8.142;2023-03-01T11:57:02;4.63;;;4.22;;
18100;SDS011;9177;49.156;8.142;2023-03-01T11:59:44;4.70;;;4.30;;
18100;SDS011;9177;49.156;8.142;2023-03-01T12:08:51;4.85;;;4.35;;
18100;SDS011;9177;49.156;8.142;2023-03-01T12:11:31;4.80;;;4.40;;
18100;SDS011;9177;49.156;8.142;2023-03-01T12:14:11;4.60;;;4.20;;
18100;SDS011;9177;49.156;8.142;2023-03-01T12:17:07;4.85;;;4.35;;
18100;SDS011;9177;49.156;8.142;2023-03-01T12:19:59;4.88;;;4.38;;
18100;SDS011;9177;49.156;8.142;2023-03-01T12:22:40;5.22;;;4.78;;
18100;SDS011;9177;49.156;8.142;2023-03-01T12:25:20;4.40;;;4.10;;
18100;SDS011;9177;49.156;8.142;2023-03-01T12:27:57;5.10;;;4.68;;
18100;SDS011;9177;49.156;8.142;2023-03-01T12:30:51;4.80;;;4.40;;
18100;SDS011;9177;49.156;8.142;2023-03-01T12:33:27;5.22;;;4.72;;
18100;SDS011;9177;49.156;8.142;2023-03-01T12:36:10;4.93;;;4.53;;
18100;SDS011;9177;49.156;8.142;2023-03-01T12:38:48;4.78;;;4.38;;
18100;SDS011;9177;49.156;8.142;2023-03-01T12:41:27;5.32;;;4.82;;
18100;SDS011;9177;49.156;8.142;2023-03-01T12:44:11;5.25;;;4.75;;
18100;SDS011;9177;49.156;8.142;2023-03-01T12:46:52;4.97;;;4.47;;
18100;SDS011;9177;49.156;8.142;2023-03-01T12:49:30;5.22;;;4.72;;
18100;SDS011;9177;49.156;8.142;2023-03-01T12:52:04;4.90;;;4.40;;
18100;SDS011;9177;49.156;8.142;2023-03-01T12:54:39;6.10;;;4.60;;
18100;SDS011;9177;49.156;8.142;2023-03-01T12:57:09;5.20;;;4.70;;
18100;SDS011;9177;49.156;8.142;2023-03-01T12:59:46;6.50;;;5.30;;
18100;SDS011;9177;49.156;8.142;2023-03-01T13:02:29;5.90;;;4.68;;
18100;SDS011;9177;49.156;8.142;2023-03-01T13:05:06;6.85;;;4.80;;
18100;SDS011;9177;49.156;8.142;2023-03-01T13:07:53;5.25;;;4.75;;
18100;SDS011;9177;49.156;8.142;2023-03-01T13:10:26;7.63;;;4.97;;
18100;SDS011;9177;49.156;8.142;2023-03-01T13:13:02;6.93;;;5.03;;
18100;SDS011;9177;49.156;8.142;2023-03-01T13:15:39;5.30;;;4.80;;
18100;SDS011;9177;49.156;8.142;2023-03-01T13:20:59;5.53;;;4.95;;
18100;SDS011;9177;49.156;8.142;2023-03-01T13:23:31;5.05;;;4.57;;
18100;SDS011;9177;49.156;8.142;2023-03-01T13:26:02;4.90;;;4.45;;
18100;SDS011;9177;49.156;8.142;2023-03-01T13:28:40;5.75;;;4.85;;
18100;SDS011;9177;49.156;8.142;2023-03-01T13:34:45;5.20;;;4.70;;
18100;SDS011;9177;49.156;8.142;2023-03-01T13:37:29;5.43;;;4.47;;
18100;SDS011;9177;49.156;8.142;2023-03-01T13:40:04;4.88;;;4.38;;
18100;SDS011;9177;49.156;8.142;2023-03-01T13:42:48;5.03;;;4.63;;
18100;SDS011;9177;49.156;8.142;2023-03-01T13:45:18;5.13;;;4.68;;
18100;SDS011;9177;49.156;8.142;2023-03-01T13:47:49;6.32;;;4.43;;
18100;SDS011;9177;49.156;8.142;2023-03-01T13:50:21;5.97;;;5.18;;
18100;SDS011;9177;49.156;8.142;2023-03-01T13:52:52;5.13;;;4.40;;
18100;SDS011;9177;49.156;8.142;2023-03-01T13:55:27;6.47;;;4.70;;
18100;SDS011;9177;49.156;8.142;2023-03-01T13:58:04;6.10;;;4.75;;
18100;SDS011;9177;49.156;8.142;2023-03-01T14:00:40;7.20;;;4.32;;
18100;SDS011;9177;49.156;8.142;2023-03-01T14:03:12;7.63;;;4.63;;
18100;SDS011;9177;49.156;8.142;2023-03-01T14:05:41;7.35;;;4.47;;
18100;SDS011;9177;49.156;8.142;2023-03-01T14:08:20;5.75;;;4.10;;
18100;SDS011;9177;49.156;8.142;2023-03-01T14:10:57;6.40;;;4.43;;
18100;SDS011;9177;49.156;8.142;2023-03-01T14:13:48;7.80;;;5.05;;
18100;SDS011;9177;49.156;8.142;2023-03-01T14:16:28;14.67;;;5.43;;
18100;SDS011;9177;49.156;8.142;2023-03-01T14:19:10;11.10;;;5.60;;
18100;SDS011;9177;49.156;8.142;2023-03-01T14:21:42;9.90;;;5.10;;
18100;SDS011;9177;49.156;8.142;2023-03-01T14:24:15;10.52;;;4.72;;
18100;SDS011;9177;49.156;8.142;2023-03-01T14:26:47;6.82;;;4.72;;
18100;SDS011;9177;49.156;8.142;2023-03-01T14:29:25;6.53;;;4.80;;
18100;SDS011;9177;49.156;8.142;2023-03-01T14:31:53;6.95;;;4.50;;
18100;SDS011;9177;49.156;8.142;2023-03-01T14:34:20;9.55;;;5.13;;
18100;SDS011;9177;49.156;8.142;2023-03-01T14:36:48;6.20;;;4.72;;
18100;SDS011;9177;49.156;8.142;2023-03-01T14:39:19;5.63;;;4.60;;
18100;SDS011;9177;49.156;8.142;2023-03-01T14:41:52;8.88;;;5.15;;
18100;SDS011;9177;49.156;8.142;2023-03-01T14:44:20;5.05;;;4.18;;
18100;SDS011;9177;49.156;8.142;2023-03-01T14:46:51;7.30;;;4.50;;
18100;SDS011;9177;49.156;8.142;2023-03-01T14:49:21;5.75;;;4.38;;
18100;SDS011;9177;49.156;8.142;2023-03-01T14:51:52;7.15;;;4.20;;
18100;SDS011;9177;49.156;8.142;2023-03-01T14:54:23;9.20;;;4.57;;
18100;SDS011;9177;49.156;8.142;2023-03-01T14:56:57;6.13;;;4.30;;
18100;SDS011;9177;49.156;8.142;2023-03-01T14:59:25;5.80;;;4.47;;
18100;SDS011;9177;49.156;8.142;2023-03-01T15:01:53;5.68;;;4.43;;
18100;SDS011;9177;49.156;8.142;2023-03-01T15:04:22;5.07;;;3.85;;
18100;SDS011;9177;49.156;8.142;2023-03-01T15:06:51;10.10;;;5.18;;
18100;SDS011;9177;49.156;8.142;2023-03-01T15:09:18;6.57;;;4.40;;
18100;SDS011;9177;49.156;8.142;2023-03-01T15:11:46;5.22;;;4.05;;
18100;SDS011;9177;49.156;8.142;2023-03-01T15:14:28;7.10;;;4.00;;
18100;SDS011;9177;49.156;8.142;2023-03-01T15:17:14;6.88;;;4.68;;
18100;SDS011;9177;49.156;8.142;2023-03-01T15:19:50;6.10;;;4.45;;
18100;SDS011;9177;49.156;8.142;2023-03-01T15:22:17;5.35;;;3.90;;
18100;SDS011;9177;49.156;8.142;2023-03-01T15:24:46;5.90;;;4.13;;
18100;SDS011;9177;49.156;8.142;2023-03-01T15:27:15;8.13;;;4.25;;
18100;SDS011;9177;49.156;8.142;2023-03-01T15:29:49;8.13;;;4.65;;
18100;SDS011;9177;49.156;8.142;2023-03-01T15:32:24;7.13;;;4.72;;
18100;SDS011;9177;49.156;8.142;2023-03-01T15:34:52;7.15;;;4.32;;
18100;SDS011;9177;49.156;8.142;2023-03-01T15:40:18;6.10;;;4.10;;
18100;SDS011;9177;49.156;8.142;2023-03-01T15:42:46;8.55;;;4.10;;